Аэропорт: Ханты-Мансийск. Ханты-Мансийск

ICAO: USHH

METAR:
2024-04-22 22:30:00
USHH 222230Z 31001MPS CAVOK M09/M15 Q1033 R06/010060 NOSIG
TAF:
2024-04-22 19:31:00
TAF USHH 221931Z 2221/2321 32003G08MPS 9999 BKN020 
  TEMPO 2221/2304 5000 BR FEW004 BKN016 
  TEMPO 2306/2315 5000 -SHSN FEW005 BKN016CB 
  BECMG 2312/2314 02003G12MPS